Time;durP1;ratioP1;P1;durP2;ratioP2;P2;SDS_P1;SDS_P2;PMS_P1;PMS_P2;Temp;Humidity;BMP_temperature;BMP_pressure;BME280_temperature;BME280_humidity;BME280_pressure;Samples;Min_cycle;Max_cycle;Signal;HPM_P1;HPM_P2
2021/09/05 10:39:05;;;;;;;65.65;23.38;;;;;;;17.20;90.71;101295.72;6125712;23;20037;31
2021/09/05 10:41:31;;;;;;;56.60;22.67;;;;;;;17.23;90.58;101294.47;6040712;23;20019;-87
2021/09/05 10:44:06;;;;;;;53.35;22.23;;;;;;;17.21;90.41;101288.41;6018311;23;20620;-87
2021/09/05 10:46:36;;;;;;;56.03;22.70;;;;;;;17.25;90.42;101295.94;6061684;23;20006;-87
2021/09/05 10:49:03;;;;;;;60.17;24.70;;;;;;;17.23;90.10;101297.19;6046814;23;20045;-87
2021/09/05 10:51:39;;;;;;;56.83;23.30;;;;;;;17.24;89.86;101293.41;6094501;23;20010;-86
2021/09/05 10:54:21;;;;;;;52.00;21.75;;;;;;;17.19;89.75;101282.31;6051329;23;20010;-88
2021/09/05 10:56:47;;;;;;;56.60;23.37;;;;;;;17.11;89.41;101281.47;6075263;23;20009;-87
2021/09/05 10:59:21;;;;;;;62.00;25.10;;;;;;;17.18;90.00;101292.38;6050147;23;20232;-87
2021/09/05 11:01:47;;;;;;;53.85;21.33;;;;;;;17.22;90.00;101303.66;6074827;23;20065;-88
2021/09/05 11:04:13;;;;;;;60.10;20.95;;;;;;;17.19;89.88;101302.19;6073603;23;20428;-87
2021/09/05 11:06:42;;;;;;;51.92;21.42;;;;;;;17.13;89.76;101298.41;6073847;23;20010;-87
2021/09/05 11:09:17;;;;;;;47.58;18.20;;;;;;;17.12;89.68;101298.59;6098249;23;20009;-87
2021/09/05 11:11:55;;;;;;;53.22;20.35;;;;;;;17.11;89.75;101310.53;6074902;23;20336;-87
2021/09/05 11:14:36;;;;;;;54.50;21.60;;;;;;;17.13;89.82;101312.00;6074406;23;20010;-87
2021/09/05 11:17:07;;;;;;;47.83;20.98;;;;;;;17.14;89.81;101316.38;6074206;23;20062;-87
2021/09/05 11:20:06;;;;;;;63.05;23.88;;;;;;;17.14;89.83;101312.84;6073633;23;20005;-87
2021/09/05 11:22:37;;;;;;;60.50;22.83;;;;;;;17.16;89.66;101312.63;6003700;23;20045;-87
2021/09/05 11:25:07;;;;;;;51.10;21.63;;;;;;;17.16;89.65;101309.91;6049479;23;20042;-87
2021/09/05 11:27:33;;;;;;;53.70;21.80;;;;;;;17.21;89.94;101315.56;6073719;23;20013;-87
2021/09/05 11:30:01;;;;;;;54.88;21.90;;;;;;;17.22;89.93;101301.75;6048881;23;20137;-87
2021/09/05 11:32:26;;;;;;;53.17;23.27;;;;;;;17.30;89.45;101308.88;6048886;23;20006;-87
2021/09/05 11:34:56;;;;;;;53.00;21.83;;;;;;;17.35;89.56;101306.38;6073080;23;20013;-87
2021/09/05 11:37:35;;;;;;;58.72;25.38;;;;;;;17.37;89.11;101301.59;6073607;23;20085;-87
2021/09/05 11:40:06;;;;;;;58.58;24.90;;;;;;;17.48;88.59;101306.41;6049329;23;20328;-88
2021/09/05 11:42:31;;;;;;;47.17;20.70;;;;;;;17.54;88.41;101307.44;6097122;23;20018;-87
2021/09/05 11:45:05;;;;;;;52.15;20.98;;;;;;;17.59;88.07;101318.53;6073478;23;20009;-88
2021/09/05 11:47:31;;;;;;;43.83;21.40;;;;;;;17.55;88.00;101306.41;6097560;23;20013;-86
2021/09/05 11:50:01;;;;;;;50.95;22.58;;;;;;;17.68;88.11;101321.91;6097556;23;20015;-88
2021/09/05 11:52:29;;;;;;;47.92;20.48;;;;;;;17.63;87.99;101310.81;6051516;23;20380;-87
2021/09/05 11:55:01;;;;;;;44.90;19.15;;;;;;;17.60;88.02;101317.50;6051032;23;20014;-87
2021/09/05 11:57:27;;;;;;;40.22;17.55;;;;;;;17.58;88.28;101323.16;6050430;23;20025;-87
2021/09/05 11:59:53;;;;;;;38.67;17.63;;;;;;;17.60;88.24;101331.09;6074381;23;20054;-87
2021/09/05 12:02:40;;;;;;;37.00;16.40;;;;;;;17.56;88.38;101327.94;6097722;23;20098;-88
2021/09/05 12:05:07;;;;;;;32.08;15.30;;;;;;;17.50;88.35;101330.69;6052309;23;20010;-87
2021/09/05 12:07:37;;;;;;;38.03;18.35;;;;;;;17.47;88.30;101334.66;6076575;23;20014;-86
2021/09/05 12:10:15;;;;;;;35.38;15.23;;;;;;;17.27;88.39;101309.31;6051133;23;20010;-88
2021/09/05 12:12:42;;;;;;;33.22;15.45;;;;;;;17.36;88.89;101333.38;6051444;23;20046;-87
2021/09/05 12:15:17;;;;;;;38.92;15.32;;;;;;;17.39;88.80;101337.56;6050588;23;20088;-87
2021/09/05 12:17:50;;;;;;;32.35;15.65;;;;;;;17.33;89.10;101316.63;6074619;23;20012;-87
2021/09/05 12:20:20;;;;;;;43.92;17.77;;;;;;;17.36;89.19;101322.50;6051121;23;20432;-88
2021/09/05 12:22:54;;;;;;;36.90;15.35;;;;;;;17.45;89.40;101335.91;6075591;23;20009;-87
2021/09/05 12:25:23;;;;;;;36.40;16.48;;;;;;;17.46;89.66;101330.22;6051008;23;20037;-87
2021/09/05 12:28:02;;;;;;;31.30;14.73;;;;;;;17.50;89.34;101330.69;6076091;23;20010;-87
2021/09/05 12:30:31;;;;;;;31.55;14.27;;;;;;;17.52;89.30;101326.69;6051110;23;20084;-87
2021/09/05 12:33:14;;;;;;;34.90;15.65;;;;;;;17.62;88.57;101326.28;6052182;23;20006;-87
2021/09/05 16:41:10;;;;;;;17.35;9.00;;;;;;;21.42;73.38;101370.97;6148954;23;20041;-66
2021/09/05 16:43:36;;;;;;;18.65;9.77;;;;;;;21.58;72.89;101363.97;6148375;23;20009;-72
2021/09/05 16:46:02;;;;;;;12.88;8.70;;;;;;;21.54;72.26;101352.69;6148252;23;20020;-72
2021/09/05 16:48:31;;;;;;;15.95;8.18;;;;;;;21.70;71.75;101373.91;6041351;23;20599;-70
2021/09/05 16:50:56;;;;;;;14.32;9.20;;;;;;;21.76;71.44;101372.13;6063791;23;20085;-72
2021/09/05 16:53:22;;;;;;;12.63;8.32;;;;;;;21.81;70.76;101369.50;5988331;23;20011;-72
2021/09/05 16:55:47;;;;;;;13.98;8.73;;;;;;;21.87;70.40;101371.28;6038781;23;20011;-73
2021/09/05 16:58:15;;;;;;;16.67;8.18;;;;;;;21.92;69.92;101365.94;6017186;23;20015;-73
2021/09/05 17:00:41;;;;;;;16.67;8.98;;;;;;;21.97;69.61;101369.88;6006509;23;20003;-73
2021/09/05 17:03:07;;;;;;;15.32;9.30;;;;;;;22.00;69.34;101367.50;6005361;23;20060;-75
2021/09/05 17:05:32;;;;;;;14.25;8.95;;;;;;;22.02;68.89;101367.28;6004971;23;20531;-75
2021/09/05 17:07:58;;;;;;;13.40;9.27;;;;;;;22.03;68.57;101363.47;5982104;23;20014;-75
2021/09/05 17:10:24;;;;;;;14.35;8.40;;;;;;;22.06;68.64;101374.75;6004828;23;20010;-72
2021/09/05 17:12:49;;;;;;;14.18;9.07;;;;;;;22.11;68.36;101376.78;6005129;23;20389;-75
2021/09/05 17:15:15;;;;;;;14.65;9.75;;;;;;;22.11;68.01;101379.53;6030502;23;20045;-75
2021/09/05 17:17:41;;;;;;;14.02;8.73;;;;;;;22.13;67.90;101382.88;6004883;23;20386;-75
2021/09/05 17:20:08;;;;;;;13.18;9.10;;;;;;;22.17;67.99;101386.78;5982486;23;20007;-75
2021/09/05 17:22:33;;;;;;;14.57;9.05;;;;;;;22.16;67.93;101382.41;6005677;23;20007;-74
2021/09/05 17:25:01;;;;;;;15.02;9.48;;;;;;;22.22;67.37;101391.59;6030738;23;20006;-74
2021/09/05 17:27:26;;;;;;;13.00;8.80;;;;;;;22.20;67.67;101388.25;6003995;23;20013;-71
2021/09/05 17:29:52;;;;;;;14.57;8.95;;;;;;;22.20;67.56;101391.00;6004202;23;20074;-73
2021/09/05 17:32:18;;;;;;;13.75;9.23;;;;;;;22.23;67.26;101394.09;6005823;23;20090;-71
2021/09/05 17:34:43;;;;;;;15.18;9.20;;;;;;;22.24;67.04;101400.41;5982822;23;20003;-72
2021/09/05 17:37:09;;;;;;;15.32;9.30;;;;;;;22.24;67.42;101394.94;6006508;23;20003;-72
2021/09/05 17:39:35;;;;;;;14.40;9.30;;;;;;;22.23;67.32;101395.97;6004900;23;20004;-71
2021/09/05 17:42:00;;;;;;;12.23;8.95;;;;;;;22.24;67.18;101405.88;5982901;23;20019;-73
2021/09/05 17:44:26;;;;;;;14.80;8.93;;;;;;;22.21;66.92;101401.72;6006837;23;20192;-73
2021/09/05 17:46:52;;;;;;;15.05;9.57;;;;;;;22.25;67.06;101407.53;6006851;23;20014;-72
2021/09/05 17:49:18;;;;;;;15.23;9.85;;;;;;;22.22;66.79;101399.81;6029721;23;20019;-72
2021/09/05 17:51:46;;;;;;;14.05;9.73;;;;;;;22.24;66.82;101409.47;6030650;23;20075;-72
2021/09/05 17:54:11;;;;;;;12.75;8.65;;;;;;;22.23;66.80;101405.06;6006127;23;20007;-72
2021/09/05 17:56:38;;;;;;;16.15;9.60;;;;;;;22.24;66.74;101412.19;6031212;23;20011;-73
2021/09/05 17:59:04;;;;;;;16.40;9.82;;;;;;;22.23;66.65;101405.06;6030318;23;20003;-72
2021/09/05 18:01:29;;;;;;;14.35;9.50;;;;;;;22.23;66.34;101409.69;6030225;23;20007;-71
2021/09/05 18:03:55;;;;;;;12.85;9.40;;;;;;;22.24;66.45;101414.09;6030838;23;20012;-73
2021/09/05 18:06:21;;;;;;;13.68;9.25;;;;;;;22.23;66.59;101401.47;6005099;23;20334;-72
2021/09/05 18:08:47;;;;;;;13.98;8.93;;;;;;;22.23;66.48;101409.69;6030846;23;20007;-71
2021/09/05 18:11:12;;;;;;;15.20;10.15;;;;;;;22.22;66.24;101408.84;6030889;23;20027;-71
2021/09/05 18:13:38;;;;;;;13.73;8.93;;;;;;;22.21;66.46;101409.94;6006507;23;20691;-71
2021/09/05 18:16:04;;;;;;;13.80;8.70;;;;;;;22.22;66.00;101411.59;6006577;23;20406;-72
2021/09/05 18:18:30;;;;;;;14.60;10.05;;;;;;;22.22;66.12;101417.06;6031315;23;20310;-72
2021/09/05 18:20:55;;;;;;;13.82;9.77;;;;;;;22.21;66.00;101409.13;6005463;23;20379;-72
2021/09/05 18:23:23;;;;;;;13.85;9.85;;;;;;;22.22;65.92;101418.97;6005992;23;20011;-70
2021/09/05 18:25:49;;;;;;;15.18;9.73;;;;;;;22.19;66.18;101419.47;5982661;23;20011;-72
2021/09/05 18:28:15;;;;;;;14.27;9.57;;;;;;;22.22;66.03;101435.41;6005543;23;20015;-72
2021/09/05 18:30:41;;;;;;;14.60;9.55;;;;;;;22.21;66.25;101440.06;6003747;23;20007;-72
2021/09/05 18:33:07;;;;;;;13.43;9.45;;;;;;;22.19;65.89;101439.47;6004628;23;20026;-72
2021/09/05 18:35:33;;;;;;;15.60;9.98;;;;;;;22.21;65.87;101451.03;6030593;23;20011;-72
2021/09/05 18:38:00;;;;;;;12.30;9.00;;;;;;;22.20;65.82;101454.00;6006059;23;20007;-72
2021/09/05 18:40:25;;;;;;;15.70;9.63;;;;;;;22.20;66.07;101446.59;6004485;23;20040;-74
2021/09/05 18:42:51;;;;;;;15.48;10.25;;;;;;;22.21;65.92;101458.41;5982331;23;20356;-73
2021/09/05 18:45:16;;;;;;;13.70;9.63;;;;;;;22.21;65.92;101453.75;6006724;23;20007;-73
2021/09/05 18:47:42;;;;;;;12.82;9.20;;;;;;;22.21;66.12;101458.41;6031748;23;20345;-72
2021/09/05 18:50:08;;;;;;;16.85;10.18;;;;;;;22.21;66.08;101458.41;6031705;23;20007;-72
2021/09/05 18:52:34;;;;;;;16.20;9.90;;;;;;;22.19;65.83;101458.63;6033011;23;20003;-69
2021/09/05 18:55:00;;;;;;;16.02;10.30;;;;;;;22.19;65.78;101453.16;6034413;23;20067;-68
2021/09/05 18:57:25;;;;;;;13.15;9.65;;;;;;;22.20;65.84;101452.06;6006128;23;20034;-69
2021/09/05 18:59:51;;;;;;;18.08;10.95;;;;;;;22.23;65.85;101459.00;6014771;23;20094;-68
2021/09/05 19:02:17;;;;;;;38.70;28.58;;;;;;;22.22;65.79;101454.59;6061584;23;20489;-68
2021/09/05 19:04:42;;;;;;;120.32;105.68;;;;;;;22.24;66.24;101457.94;6036379;23;20031;-68
2021/09/05 19:07:08;;;;;;;162.05;141.48;;;;;;;22.22;66.64;101458.16;6062342;23;20006;-68
2021/09/05 19:09:34;;;;;;;356.95;309.05;;;;;;;22.21;67.18;101445.56;6012754;23;20162;-68
2021/09/05 19:12:00;;;;;;;329.50;291.70;;;;;;;22.22;67.28;101447.22;6061772;23;20058;-68
2021/09/05 19:14:25;;;;;;;281.77;247.65;;;;;;;22.24;67.74;101456.03;6061613;23;20006;-68
2021/09/05 19:16:51;;;;;;;231.95;203.82;;;;;;;22.24;67.77;101460.69;6037241;23;20036;-68
2021/09/05 19:19:16;;;;;;;236.82;210.68;;;;;;;22.21;67.76;101451.03;6061930;23;20006;-68
2021/09/05 19:21:42;;;;;;;233.40;201.45;;;;;;;22.24;67.99;101458.78;6061890;23;20073;-68
2021/09/05 19:24:08;;;;;;;232.40;202.60;;;;;;;22.24;67.76;101453.28;6061746;23;20433;-68
2021/09/05 19:26:33;;;;;;;221.82;197.40;;;;;;;22.24;67.67;101466.97;6035913;23;20388;-68
2021/09/05 19:28:59;;;;;;;225.25;194.55;;;;;;;22.25;67.86;101463.16;6061469;23;20007;-68
2021/09/05 19:31:25;;;;;;;215.02;188.60;;;;;;;22.23;67.77;101459.84;6060841;23;20003;-68
2021/09/05 19:33:50;;;;;;;218.55;189.38;;;;;;;22.25;67.72;101465.06;6061840;23;20077;-68
2021/09/05 19:36:17;;;;;;;210.45;183.23;;;;;;;22.27;67.75;101466.50;6035119;23;20392;-68
2021/09/05 19:38:44;;;;;;;212.98;186.80;;;;;;;22.26;67.48;101474.97;6036330;23;20002;-68
2021/09/05 19:41:10;;;;;;;205.93;178.85;;;;;;;22.25;67.36;101468.63;6011910;23;20046;-68
2021/09/05 19:43:36;;;;;;;207.85;178.05;;;;;;;22.22;67.52;101458.16;6036620;23;20698;-68
2021/09/05 19:46:05;;;;;;;198.85;175.43;;;;;;;22.25;67.63;101463.16;6060901;23;20018;-68
2021/09/05 19:48:32;;;;;;;199.23;174.10;;;;;;;22.25;67.27;101465.91;6037277;23;20088;-68
2021/09/05 19:50:57;;;;;;;197.07;172.15;;;;;;;22.23;67.32;101469.94;6060995;23;20003;-68
2021/09/05 19:53:23;;;;;;;196.13;168.18;;;;;;;22.24;67.48;101475.19;6061767;23;20007;-68
2021/09/05 19:55:49;;;;;;;191.25;163.52;;;;;;;22.25;67.42;101473.28;6056993;23;20007;-68
2021/09/05 19:58:14;;;;;;;185.32;160.05;;;;;;;22.25;67.41;101473.28;6010419;23;20370;-69
2021/09/05 20:00:40;;;;;;;178.27;158.57;;;;;;;22.25;67.41;101479.59;6059172;23;20011;-68
2021/09/05 20:03:06;;;;;;;181.30;155.05;;;;;;;22.25;67.43;101482.34;6059624;23;20030;-68
2021/09/05 20:05:31;;;;;;;179.05;152.50;;;;;;;22.26;67.32;101484.03;6010479;23;20007;-69
2021/09/05 20:07:57;;;;;;;173.00;154.00;;;;;;;22.27;67.12;101482.13;6033898;23;20011;-68
2021/09/05 20:10:22;;;;;;;169.93;150.88;;;;;;;22.24;67.38;101477.94;6033345;23;20093;-67
2021/09/05 20:12:48;;;;;;;173.73;149.43;;;;;;;22.27;67.35;101482.94;6058418;23;20014;-69
2021/09/05 20:15:14;;;;;;;175.02;149.23;;;;;;;22.27;67.26;101491.16;6059020;23;20333;-68
2021/09/05 20:17:40;;;;;;;166.55;146.30;;;;;;;22.28;67.25;101494.72;6033842;23;20007;-68
2021/09/05 20:20:07;;;;;;;162.77;144.77;;;;;;;22.26;67.07;101505.94;6058653;23;20003;-68
2021/09/05 20:22:33;;;;;;;159.88;142.55;;;;;;;22.27;67.32;101504.84;6033874;23;20049;-69
2021/09/05 20:24:58;;;;;;;159.25;141.80;;;;;;;22.25;67.21;101504.25;6033364;23;20496;-68
2021/09/05 20:27:24;;;;;;;160.50;141.32;;;;;;;22.28;67.25;101508.44;6033732;23;20003;-68
2021/09/05 20:29:49;;;;;;;155.75;138.52;;;;;;;22.27;67.14;101507.59;6032522;23;20051;-69
2021/09/05 20:32:15;;;;;;;150.55;134.00;;;;;;;22.28;66.78;101512.03;6059191;23;20067;-69
2021/09/05 20:34:42;;;;;;;152.30;135.50;;;;;;;22.25;67.12;101509.72;6032894;23;20037;-69
2021/09/05 20:37:09;;;;;;;148.27;132.25;;;;;;;22.28;67.07;101511.16;6034225;23;20014;-69
2021/09/05 20:39:34;;;;;;;148.93;132.43;;;;;;;22.25;66.74;101520.69;6009522;23;20015;-68
2021/09/05 20:42:00;;;;;;;147.95;131.65;;;;;;;22.24;67.16;101519.03;6033561;23;20089;-69
2021/09/05 20:44:25;;;;;;;147.90;129.30;;;;;;;22.25;66.81;101517.94;6032955;23;20025;-69
2021/09/05 20:46:51;;;;;;;142.90;127.50;;;;;;;22.27;67.05;101525.94;6058398;23;20069;-67
2021/09/05 20:49:17;;;;;;;140.40;125.43;;;;;;;22.28;66.88;101527.59;6058248;23;20530;-69
2021/09/05 20:51:47;;;;;;;138.30;123.35;;;;;;;22.26;67.17;101525.13;6058690;23;20014;-68
2021/09/05 20:54:13;;;;;;;132.63;118.00;;;;;;;22.26;66.97;101524.28;6057038;23;20017;-69
2021/09/05 20:56:38;;;;;;;133.98;119.25;;;;;;;22.25;66.92;101528.09;6033578;23;20011;-69
2021/09/05 20:59:04;;;;;;;178.57;122.20;;;;;;;22.25;67.40;101528.09;6058444;23;20039;-69
2021/09/05 21:01:29;;;;;;;128.25;114.20;;;;;;;22.28;67.00;101535.81;6058662;23;20430;-69
2021/09/05 21:03:55;;;;;;;121.03;106.45;;;;;;;22.26;67.13;101525.13;6009963;23;20016;-69
2021/09/05 21:06:22;;;;;;;124.00;109.15;;;;;;;22.27;66.92;101520.47;6058298;23;20071;-68
2021/09/05 21:08:47;;;;;;;122.82;109.25;;;;;;;22.27;66.77;101526.78;6058832;23;20007;-69
2021/09/05 21:11:14;;;;;;;120.10;107.07;;;;;;;22.26;66.79;101530.59;6058543;23;20023;-69
2021/09/05 21:13:43;;;;;;;119.78;106.82;;;;;;;22.25;66.98;101528.91;6033336;23;20037;-70
2021/09/05 21:16:09;;;;;;;119.85;103.65;;;;;;;22.27;66.99;101535.00;6033564;23;20197;-68
2021/09/05 21:18:35;;;;;;;115.97;103.32;;;;;;;22.26;66.92;101530.59;6058740;23;20006;-69
2021/09/05 21:21:01;;;;;;;112.25;100.00;;;;;;;22.23;66.88;101528.34;6032752;23;20054;-69
2021/09/05 21:23:26;;;;;;;118.53;102.60;;;;;;;22.22;66.87;101523.06;6033175;23;20528;-68
2021/09/05 21:25:52;;;;;;;109.45;97.50;;;;;;;22.24;66.78;101538.22;6057325;23;20026;-69
2021/09/05 21:28:18;;;;;;;108.75;96.97;;;;;;;22.25;67.09;101530.81;6058577;23;20006;-69
2021/09/05 21:30:43;;;;;;;105.28;93.53;;;;;;;22.24;66.84;101535.47;6032229;23;20006;-68
2021/09/05 21:33:09;;;;;;;107.35;95.63;;;;;;;22.24;66.96;101538.22;6059021;23;20109;-68
2021/09/05 21:35:34;;;;;;;105.63;94.03;;;;;;;22.21;67.09;101533.22;6058371;23;20720;-68
2021/09/05 21:38:00;;;;;;;101.38;90.53;;;;;;;22.24;66.71;101538.22;6058420;23;20370;-69
2021/09/05 21:40:25;;;;;;;103.30;92.25;;;;;;;22.25;66.71;101542.59;6057165;23;20002;-67
2021/09/05 21:42:51;;;;;;;101.40;89.93;;;;;;;22.24;66.99;101540.94;6058567;23;20344;-69
2021/09/05 21:45:17;;;;;;;102.07;90.75;;;;;;;22.24;66.94;101549.16;6058158;23;20010;-70
2021/09/05 21:47:42;;;;;;;98.00;87.45;;;;;;;22.24;66.88;101548.34;6058837;23;20021;-69
2021/09/05 21:50:09;;;;;;;96.55;86.28;;;;;;;22.24;67.03;101543.69;6032948;23;20101;-69
2021/09/05 21:52:34;;;;;;;97.45;86.75;;;;;;;22.22;66.79;101540.34;6032403;23;20113;-69
2021/09/05 21:55:00;;;;;;;91.20;81.18;;;;;;;22.23;66.82;101544.78;6032351;23;20106;-69
2021/09/05 21:57:25;;;;;;;92.80;82.78;;;;;;;22.24;66.92;101551.91;6032898;23;20007;-72
2021/09/05 21:59:51;;;;;;;89.50;79.78;;;;;;;22.24;66.93;101549.16;6054180;23;19999;-69
2021/09/05 22:02:17;;;;;;;88.38;77.70;;;;;;;22.24;66.71;101548.34;6029300;23;20018;-69
2021/09/05 22:04:43;;;;;;;89.93;80.43;;;;;;;22.24;66.68;101554.66;6054849;23;20021;-69
2021/09/05 22:07:09;;;;;;;90.13;80.38;;;;;;;22.24;66.66;101551.06;6032225;23;20010;-69
2021/09/05 22:09:35;;;;;;;88.28;79.03;;;;;;;22.24;66.59;101557.38;6054459;23;20006;-69
2021/09/05 22:12:00;;;;;;;90.65;80.82;;;;;;;22.24;66.66;101570.25;6054071;23;20014;-69
2021/09/05 22:14:26;;;;;;;88.43;79.07;;;;;;;22.24;66.46;101573.00;6053477;23;20013;-69
2021/09/05 22:16:51;;;;;;;83.88;74.68;;;;;;;22.20;66.56;101569.03;6055449;23;20013;-69
2021/09/05 22:19:17;;;;;;;85.70;76.00;;;;;;;22.22;66.43;101578.69;6054074;23;20421;-70
2021/09/05 22:21:42;;;;;;;85.47;76.20;;;;;;;22.21;66.43;101579.78;6030909;23;20098;-69
2021/09/05 22:24:08;;;;;;;82.82;73.90;;;;;;;22.22;66.29;101580.59;6028432;23;20018;-69
2021/09/05 22:26:34;;;;;;;79.75;71.18;;;;;;;22.20;66.54;101580.81;6055727;23;20030;-69
2021/09/05 22:28:59;;;;;;;79.47;70.88;;;;;;;22.22;66.43;101586.91;6056131;23;20003;-69
2021/09/05 22:31:25;;;;;;;78.43;69.88;;;;;;;22.21;66.37;101573.47;6055813;23;20011;-69
2021/09/05 22:33:51;;;;;;;79.05;70.57;;;;;;;22.16;66.36;101574.13;6032096;23;20062;-69
2021/09/05 22:36:17;;;;;;;79.38;71.00;;;;;;;22.20;65.96;101583.56;6028998;23;20030;-69
2021/09/05 22:38:42;;;;;;;80.00;69.72;;;;;;;22.17;65.90;101582.13;6006811;23;20081;-69
2021/09/05 22:41:08;;;;;;;76.95;68.80;;;;;;;22.19;66.08;101586.56;6032009;23;20014;-69
2021/09/05 22:43:33;;;;;;;77.95;69.63;;;;;;;22.18;65.97;101577.47;6055680;23;20003;-69
2021/09/05 22:45:59;;;;;;;72.43;64.75;;;;;;;22.17;66.06;101575.78;6055643;23;20098;-70
2021/09/05 22:48:25;;;;;;;75.85;67.72;;;;;;;22.17;66.18;101573.03;6029690;23;20007;-69
2021/09/05 22:50:50;;;;;;;74.00;65.15;;;;;;;22.14;65.97;101574.34;6055320;23;20011;-69
2021/09/05 22:53:16;;;;;;;73.70;65.47;;;;;;;22.14;65.88;101577.09;6054832;23;20006;-70
2021/09/05 22:55:42;;;;;;;74.72;66.63;;;;;;;22.15;65.80;101580.69;6029475;23;20010;-70
2021/09/05 22:58:08;;;;;;;72.80;64.82;;;;;;;22.16;65.74;101582.34;6031023;23;20007;-69
2021/09/05 23:00:34;;;;;;;70.63;63.03;;;;;;;22.15;66.08;101583.41;6031280;23;20734;-69
2021/09/05 23:03:00;;;;;;;70.95;63.35;;;;;;;22.15;65.98;101577.94;6033297;23;20007;-69
2021/09/05 23:05:26;;;;;;;71.30;63.85;;;;;;;22.13;66.01;101572.69;6034327;23;20014;-70
2021/09/05 23:07:52;;;;;;;70.40;61.20;;;;;;;22.13;65.78;101580.91;6034028;23;20007;-70
2021/09/05 23:10:18;;;;;;;69.30;62.03;;;;;;;22.14;65.77;101579.00;6054467;23;20003;-69
2021/09/05 23:12:44;;;;;;;68.90;61.33;;;;;;;22.14;65.66;101579.81;6030984;23;20002;-69
2021/09/05 23:15:11;;;;;;;66.95;59.67;;;;;;;22.14;65.52;101576.25;6054887;23;20007;-69
2021/09/05 23:17:37;;;;;;;66.75;59.50;;;;;;;22.11;65.85;101572.06;6056248;23;20007;-70
2021/09/05 23:20:04;;;;;;;64.50;57.67;;;;;;;22.13;65.76;101572.69;6030085;23;20217;-70
2021/09/05 23:22:30;;;;;;;66.68;58.33;;;;;;;22.13;65.64;101575.44;6032374;23;20038;-69
2021/09/05 23:24:55;;;;;;;65.97;57.75;;;;;;;22.13;65.57;101574.59;6054521;23;20090;-70
2021/09/05 23:27:21;;;;;;;64.07;57.40;;;;;;;22.13;65.33;101574.59;6032144;23;20330;-70
2021/09/05 23:29:46;;;;;;;64.75;57.88;;;;;;;22.12;65.43;101568.28;6056419;23;20003;-70
2021/09/05 23:32:13;;;;;;;64.47;56.85;;;;;;;22.11;65.64;101571.25;6057710;23;20122;-70
2021/09/05 23:34:39;;;;;;;62.00;55.35;;;;;;;22.11;65.62;101572.06;6058005;23;20102;-70
2021/09/05 23:37:05;;;;;;;60.70;54.10;;;;;;;22.11;65.47;101577.56;6031549;23;20421;-70
2021/09/05 23:39:31;;;;;;;61.58;55.20;;;;;;;22.11;65.43;101576.72;6030842;23;20005;-70
2021/09/05 23:41:57;;;;;;;62.35;55.15;;;;;;;22.11;65.30;101574.00;6030752;23;20007;-70
2021/09/05 23:44:22;;;;;;;58.97;52.75;;;;;;;22.11;65.54;101576.72;6056664;23;20078;-70
2021/09/05 23:46:48;;;;;;;56.80;50.70;;;;;;;22.10;65.18;101577.81;6057581;23;20035;-70
2021/09/05 23:49:15;;;;;;;60.10;53.22;;;;;;;22.10;65.50;101575.06;6031567;23;20011;-70
2021/09/05 23:51:40;;;;;;;57.95;50.65;;;;;;;22.10;65.45;101569.59;6056819;23;20376;-70
2021/09/05 23:54:06;;;;;;;59.17;51.67;;;;;;;22.07;65.17;101565.41;6031170;23;20066;-70
2021/09/05 23:56:32;;;;;;;55.60;49.63;;;;;;;22.09;65.42;101568.72;6056419;23;20066;-70
2021/09/05 23:58:58;;;;;;;55.03;49.00;;;;;;;22.07;65.03;101564.56;6009307;23;20006;-70
